Lake Charles, LA

3:21 PM CDT on September 02, 2015 (GMT -0500)
NOS_NWLON | | Change Station
CLOSE
Current Station
Personal Weather Station
Location: Lake Charles, LA
Elevation: 0 ft
Nearby Weather Stations

Elev 0 ft 30.22 °N, 93.22 °W | Updated 1 hour ago

Overcast
Overcast
88.0 °F
Feels Like 88.0 °F
N
0.0
Wind Variable Wind from North
Gusts 0.0 mph

Today
High -- | Low -- °F
--% Chance of Precip.
Yesterday
High -- | Low -- °F
Precip. -- in
6:50 AM 7:34 PM
Waning Gibbous, 77% visible
Pressure 30.05 in
Visibility 10.0 miles
Clouds Mostly Cloudy 5500 ft
Overcast 9000 ft
Dew Point Not available.
Humidity Not available.
Rainfall in
Snow Depth Not available.
UV 3 out of 12
Pollen 6.40 out of 12
Air Quality Not available.
Flu Activity Not available.
METAR KCWF 021950Z 15017G26KT 10SM BKN055 OVC090 26/22 A3005
Pressure 30.05 in
Visibility 10.0 miles
Clouds Mostly Cloudy 5500 ft
Overcast 9000 ft
Dew Point Not available.
Humidity Not available.
Rainfall in
Snow Depth Not available.
UV 3 out of 12
Pollen 6.40 out of 12
Air Quality Not available.
Flu Activity Not available.
METAR KCWF 021950Z 15017G26KT 10SM BKN055 OVC090 26/22 A3005

10-Day Weather Forecast

×

Almanac

Astronomy

Sep. 02, 2015 Rise Set
Actual Time
Civil Twilight
Nautical Twilight
Astronomical Twilight
Moon
Length of Visible Light
Length of Day
Tomorrow will be .
, % of the Moon is Illuminated

Today's Extremes

State Highs State Lows

Community

WunderPhotos

Upload Photos

1,851,804 photos uploaded!

WunderBlogs® & News

Nearby

Air Quality

  Air Quality AQ Index Pollutant
Not available.

Snow Depth

Station Depth Elevation

Earthquake Activity

City Distance Mag. Time & Date
Minimum magnitude displayed is 2.5.

Coastal Water Temperatures

Place Temperature

Stations

Nearby Weather Stations

Station Location Temp. Windchill Dew Point Humidity Wind Precip. Elev Updated Type